Time;durP1;ratioP1;P1;durP2;ratioP2;P2;SDS_P1;SDS_P2;PMS_P1;PMS_P2;Temp;Humidity;BMP_temperature;BMP_pressure;BME280_temperature;BME280_humidity;BME280_pressure;Samples;Min_cycle;Max_cycle;Signal;HPM_P1;HPM_P2
2023/07/23 00:01:22;;;;;;;3.70;3.40;;;;;;;;;;5032652;28;20616;-68
2023/07/23 00:03:50;;;;;;;5.47;4.97;;;;;;;;;;5030200;28;20706;-69
2023/07/23 00:06:18;;;;;;;4.30;4.00;;;;;;;;;;5032291;28;20631;-69
2023/07/23 00:08:46;;;;;;;7.40;4.40;;;;;;;;;;5038880;28;20667;-68
2023/07/23 00:11:14;;;;;;;4.30;4.00;;;;;;;;;;5045402;28;20648;-68
2023/07/23 00:13:43;;;;;;;5.33;4.97;;;;;;;;;;5036232;28;20631;-68
2023/07/23 00:16:12;;;;;;;4.50;4.13;;;;;;;;;;5039602;28;20634;-68
2023/07/23 00:18:41;;;;;;;6.07;4.77;;;;;;;;;;5037651;28;20616;-67
2023/07/23 00:21:09;;;;;;;7.50;4.83;;;;;;;;;;5034741;28;20769;-68
2023/07/23 00:23:37;;;;;;;5.47;4.73;;;;;;;;;;5051592;28;20654;-68
2023/07/23 00:26:05;;;;;;;4.17;3.87;;;;;;;;;;5051890;28;20618;-68
2023/07/23 00:28:34;;;;;;;5.50;4.33;;;;;;;;;;5052095;28;20641;-67
2023/07/23 00:31:03;;;;;;;4.93;4.43;;;;;;;;;;5051671;28;20972;-69
2023/07/23 00:33:32;;;;;;;11.73;4.40;;;;;;;;;;5048559;28;20595;-68
2023/07/23 00:36:01;;;;;;;4.67;4.13;;;;;;;;;;5042652;28;20637;-68
2023/07/23 00:38:29;;;;;;;4.37;3.97;;;;;;;;;;5051848;28;20607;-69
2023/07/23 00:40:57;;;;;;;5.47;4.83;;;;;;;;;;5051283;28;20672;-69
2023/07/23 00:43:26;;;;;;;4.63;4.23;;;;;;;;;;5051235;28;20615;-69
2023/07/23 00:45:54;;;;;;;4.93;4.53;;;;;;;;;;5038235;28;20611;-68
2023/07/23 00:48:22;;;;;;;5.70;5.10;;;;;;;;;;5051681;28;20638;-68
2023/07/23 00:50:52;;;;;;;6.33;5.10;;;;;;;;;;5051181;28;20704;-67
2023/07/23 00:53:21;;;;;;;5.70;5.20;;;;;;;;;;5046238;28;20658;-68
2023/07/23 00:55:49;;;;;;;10.13;5.10;;;;;;;;;;5044340;28;20635;-68
2023/07/23 00:58:18;;;;;;;6.50;4.90;;;;;;;;;;5052044;28;20611;-72
2023/07/23 01:00:46;;;;;;;6.60;5.40;;;;;;;;;;5038142;28;20689;-73
2023/07/23 01:03:15;;;;;;;5.33;4.93;;;;;;;;;;5047125;28;20653;-72
2023/07/23 01:05:44;;;;;;;6.50;4.47;;;;;;;;;;5050467;28;20968;-73
2023/07/23 01:08:14;;;;;;;8.00;5.60;;;;;;;;;;5051645;28;20684;-73
2023/07/23 01:10:43;;;;;;;5.20;4.20;;;;;;;;;;5032136;28;22248;-73
2023/07/23 01:13:11;;;;;;;8.13;4.97;;;;;;;;;;5030825;28;20640;-72
2023/07/23 01:15:39;;;;;;;5.07;4.13;;;;;;;;;;5031455;28;20636;-73
2023/07/23 01:18:08;;;;;;;5.27;4.80;;;;;;;;;;5032952;28;20662;-73
2023/07/23 01:20:36;;;;;;;6.67;4.93;;;;;;;;;;5031357;28;20656;-74
2023/07/23 01:23:06;;;;;;;5.10;4.60;;;;;;;;;;5048421;28;20965;-72
2023/07/23 01:25:34;;;;;;;4.83;4.40;;;;;;;;;;5058628;28;20622;-74
2023/07/23 01:28:02;;;;;;;5.33;4.83;;;;;;;;;;5051001;28;20631;-73
2023/07/23 01:30:30;;;;;;;6.57;4.70;;;;;;;;;;5044415;28;20667;-74
2023/07/23 01:32:59;;;;;;;5.40;4.90;;;;;;;;;;5039764;28;20628;-73
2023/07/23 01:35:27;;;;;;;5.27;4.77;;;;;;;;;;5038005;28;21217;-73
2023/07/23 01:37:56;;;;;;;5.53;5.13;;;;;;;;;;5052781;28;20628;-73
2023/07/23 01:40:26;;;;;;;7.30;4.50;;;;;;;;;;5078013;28;20618;-73
2023/07/23 01:42:54;;;;;;;4.70;4.20;;;;;;;;;;5061934;28;20617;-73
2023/07/23 01:45:22;;;;;;;5.43;4.77;;;;;;;;;;5058222;28;20598;-73
2023/07/23 01:47:50;;;;;;;4.63;3.90;;;;;;;;;;5058897;28;20625;-74
2023/07/23 01:50:18;;;;;;;4.67;4.27;;;;;;;;;;5058314;28;20631;-73
2023/07/23 01:52:47;;;;;;;5.00;4.60;;;;;;;;;;5057839;28;21152;-73
2023/07/23 01:55:15;;;;;;;7.63;4.73;;;;;;;;;;5037806;28;20619;-73
2023/07/23 01:57:45;;;;;;;5.17;4.73;;;;;;;;;;5037089;28;20593;-73
2023/07/23 02:00:14;;;;;;;5.07;4.40;;;;;;;;;;5037780;28;20597;-73
2023/07/23 02:02:42;;;;;;;14.60;4.30;;;;;;;;;;5037089;28;20595;-73
2023/07/23 02:05:10;;;;;;;4.70;3.80;;;;;;;;;;5036405;28;20676;-73
2023/07/23 02:07:38;;;;;;;6.30;4.60;;;;;;;;;;5037611;28;20590;-74
2023/07/23 02:10:07;;;;;;;5.27;4.60;;;;;;;;;;5037045;28;21015;-74
2023/07/23 02:12:35;;;;;;;6.33;4.60;;;;;;;;;;5036765;28;21168;-73
2023/07/23 02:15:06;;;;;;;4.97;4.57;;;;;;;;;;5039887;28;20625;-73
2023/07/23 02:17:34;;;;;;;5.33;4.73;;;;;;;;;;5040114;28;20583;-73
2023/07/23 02:20:05;;;;;;;5.40;4.90;;;;;;;;;;5057171;28;20920;-73
2023/07/23 02:22:34;;;;;;;7.97;4.90;;;;;;;;;;5057770;28;20597;-73
2023/07/23 02:25:02;;;;;;;7.30;4.13;;;;;;;;;;5055483;28;21237;-73
2023/07/23 02:27:30;;;;;;;6.30;4.20;;;;;;;;;;5056809;28;20590;-73
2023/07/23 02:29:59;;;;;;;4.87;4.47;;;;;;;;;;5053259;28;20642;-73
2023/07/23 02:32:28;;;;;;;6.23;4.83;;;;;;;;;;5035262;28;20590;-73
2023/07/23 02:34:56;;;;;;;5.93;4.03;;;;;;;;;;5033677;28;20619;-73
2023/07/23 02:37:25;;;;;;;5.70;4.50;;;;;;;;;;5048994;28;20701;-73
2023/07/23 02:39:54;;;;;;;4.57;4.20;;;;;;;;;;5054223;28;20972;-73
2023/07/23 02:42:22;;;;;;;4.70;4.30;;;;;;;;;;5053802;28;20640;-73
2023/07/23 02:44:50;;;;;;;5.70;4.43;;;;;;;;;;5051306;28;20646;-73
2023/07/23 02:47:19;;;;;;;7.90;5.10;;;;;;;;;;5035764;28;20624;-74
2023/07/23 02:49:48;;;;;;;5.00;4.50;;;;;;;;;;5033961;28;20634;-73
2023/07/23 02:52:16;;;;;;;4.60;4.20;;;;;;;;;;5032344;28;20984;-73
2023/07/23 02:54:45;;;;;;;5.03;4.53;;;;;;;;;;5034372;28;20669;-72
2023/07/23 02:57:13;;;;;;;5.27;4.77;;;;;;;;;;5032579;28;20623;-73
2023/07/23 02:59:41;;;;;;;5.30;4.73;;;;;;;;;;5034263;28;20975;-73
2023/07/23 03:02:09;;;;;;;4.80;4.40;;;;;;;;;;5040652;28;20994;-72
2023/07/23 03:04:37;;;;;;;4.47;4.07;;;;;;;;;;5034923;28;20605;-72
2023/07/23 03:07:09;;;;;;;5.27;4.73;;;;;;;;;;5051855;28;20599;-73
2023/07/23 03:09:37;;;;;;;4.67;4.27;;;;;;;;;;5052864;28;20609;-73
2023/07/23 03:12:06;;;;;;;5.03;4.53;;;;;;;;;;5047799;28;20635;-73
2023/07/23 03:14:34;;;;;;;4.90;4.50;;;;;;;;;;5033767;28;20602;-73
2023/07/23 03:17:02;;;;;;;5.13;4.63;;;;;;;;;;5033156;28;21185;-73
2023/07/23 03:19:31;;;;;;;5.20;4.70;;;;;;;;;;5036116;28;20634;-73
2023/07/23 03:21:59;;;;;;;5.50;4.90;;;;;;;;;;5052946;28;20975;-73
2023/07/23 03:24:29;;;;;;;5.00;4.50;;;;;;;;;;5053890;28;20618;-74
2023/07/23 03:26:57;;;;;;;4.97;4.57;;;;;;;;;;5051692;28;20587;-73
2023/07/23 03:29:26;;;;;;;5.03;4.53;;;;;;;;;;5052401;28;20643;-73
2023/07/23 03:31:54;;;;;;;4.90;4.50;;;;;;;;;;5033096;28;20997;-74
2023/07/23 03:34:22;;;;;;;5.00;4.60;;;;;;;;;;5032338;28;20936;-73
2023/07/23 03:36:52;;;;;;;6.20;5.23;;;;;;;;;;5031613;28;20622;-73
2023/07/23 03:39:20;;;;;;;5.33;4.90;;;;;;;;;;5032954;28;20616;-73
2023/07/23 03:41:50;;;;;;;7.10;4.60;;;;;;;;;;5032613;28;20692;-73
2023/07/23 03:44:19;;;;;;;4.73;4.30;;;;;;;;;;5037993;28;20608;-73
2023/07/23 03:46:58;;;;;;;4.70;4.30;;;;;;;;;;5052338;28;20955;-72
2023/07/23 03:49:26;;;;;;;5.93;5.27;;;;;;;;;;5052346;28;20595;-73
2023/07/23 03:51:54;;;;;;;4.90;4.40;;;;;;;;;;5039673;28;20996;-72
2023/07/23 03:54:23;;;;;;;5.33;4.63;;;;;;;;;;5048531;28;20635;-72
2023/07/23 03:56:52;;;;;;;5.13;4.63;;;;;;;;;;5038655;28;21189;-73
2023/07/23 03:59:21;;;;;;;6.67;4.23;;;;;;;;;;5052870;28;20581;-73
2023/07/23 04:01:49;;;;;;;9.07;6.10;;;;;;;;;;5041105;28;20657;-73
2023/07/23 04:04:17;;;;;;;4.90;4.50;;;;;;;;;;5030275;28;20575;-73
2023/07/23 04:06:45;;;;;;;5.20;4.50;;;;;;;;;;5034209;28;20619;-73
2023/07/23 04:09:14;;;;;;;5.97;4.30;;;;;;;;;;5039922;28;21171;-70
2023/07/23 04:11:44;;;;;;;9.40;5.00;;;;;;;;;;5050334;28;20667;-73
2023/07/23 04:14:13;;;;;;;7.10;4.93;;;;;;;;;;5038412;28;20990;-73
2023/07/23 04:16:42;;;;;;;4.80;4.30;;;;;;;;;;5033462;28;20612;-73
2023/07/23 04:19:10;;;;;;;5.87;4.27;;;;;;;;;;5032965;28;20626;-73
2023/07/23 04:21:38;;;;;;;4.37;3.97;;;;;;;;;;5033139;28;20646;-73
2023/07/23 04:24:07;;;;;;;5.20;4.70;;;;;;;;;;5032414;28;21243;-73
2023/07/23 04:26:35;;;;;;;5.57;5.07;;;;;;;;;;5050780;28;20615;-73
2023/07/23 04:29:02;;;;;;;4.30;3.90;;;;;;;;;;5052825;28;21252;-73
2023/07/23 04:31:32;;;;;;;4.70;4.27;;;;;;;;;;5039574;28;21264;-73
2023/07/23 04:34:02;;;;;;;3.90;3.60;;;;;;;;;;5032837;28;21101;-73
2023/07/23 04:36:30;;;;;;;8.43;3.90;;;;;;;;;;5033745;28;20708;-73
2023/07/23 04:39:00;;;;;;;5.27;3.67;;;;;;;;;;5033147;28;20658;-73
2023/07/23 04:41:28;;;;;;;6.83;4.00;;;;;;;;;;5033576;28;20648;-73
2023/07/23 04:43:56;;;;;;;4.13;3.83;;;;;;;;;;5039238;28;20615;-72
2023/07/23 04:46:24;;;;;;;4.20;3.27;;;;;;;;;;5051869;28;20619;-73
2023/07/23 04:48:54;;;;;;;3.83;3.53;;;;;;;;;;5051596;28;20604;-72
2023/07/23 04:51:25;;;;;;;5.20;3.10;;;;;;;;;;5032294;28;20644;-73
2023/07/23 04:53:53;;;;;;;3.90;3.53;;;;;;;;;;5032334;28;20603;-73
2023/07/23 04:56:21;;;;;;;3.40;3.10;;;;;;;;;;5030697;28;20571;-74
2023/07/23 04:58:50;;;;;;;3.40;3.10;;;;;;;;;;5033816;28;20624;-73
2023/07/23 05:01:18;;;;;;;5.83;3.53;;;;;;;;;;5047901;28;20623;-73
2023/07/23 05:03:46;;;;;;;3.50;3.20;;;;;;;;;;5051373;28;20973;-73
2023/07/23 05:06:16;;;;;;;4.23;3.47;;;;;;;;;;5036880;28;21014;-73
2023/07/23 05:08:44;;;;;;;4.17;3.03;;;;;;;;;;5048461;28;20623;-73
2023/07/23 05:11:12;;;;;;;5.67;3.00;;;;;;;;;;5049872;28;20663;-73
2023/07/23 05:13:40;;;;;;;3.67;3.10;;;;;;;;;;5043579;28;20679;-73
2023/07/23 05:16:09;;;;;;;3.70;3.40;;;;;;;;;;5052272;28;20629;-73
2023/07/23 05:18:37;;;;;;;5.10;3.80;;;;;;;;;;5034720;28;20666;-74
2023/07/23 05:21:06;;;;;;;4.57;3.33;;;;;;;;;;5032469;28;21281;-73
2023/07/23 05:23:36;;;;;;;4.53;3.00;;;;;;;;;;5032733;28;20620;-73
2023/07/23 05:26:04;;;;;;;3.67;3.33;;;;;;;;;;5032207;28;20620;-72
2023/07/23 05:28:32;;;;;;;4.63;3.37;;;;;;;;;;5032627;28;21056;-74
2023/07/23 05:31:00;;;;;;;4.33;3.20;;;;;;;;;;5051439;28;20663;-74
2023/07/23 05:33:30;;;;;;;3.50;3.20;;;;;;;;;;5052528;28;20615;-73
2023/07/23 05:35:58;;;;;;;4.27;3.20;;;;;;;;;;5052020;28;20615;-74
2023/07/23 05:38:26;;;;;;;3.33;3.03;;;;;;;;;;5051645;28;20614;-73
2023/07/23 05:40:57;;;;;;;3.20;3.00;;;;;;;;;;5051669;28;20635;-72
2023/07/23 05:43:25;;;;;;;6.13;3.23;;;;;;;;;;5051400;28;20981;-74
2023/07/23 05:45:53;;;;;;;5.17;2.87;;;;;;;;;;5053001;28;20611;-73
2023/07/23 05:48:22;;;;;;;3.43;3.13;;;;;;;;;;5049163;28;20624;-73
2023/07/23 05:50:50;;;;;;;2.87;2.67;;;;;;;;;;5041736;28;20659;-74
2023/07/23 05:53:19;;;;;;;3.30;3.07;;;;;;;;;;5044045;28;20619;-74
2023/07/23 05:55:47;;;;;;;4.90;2.83;;;;;;;;;;5041316;28;20964;-74
2023/07/23 05:58:16;;;;;;;2.77;2.57;;;;;;;;;;5042159;28;20616;-73
2023/07/23 06:00:45;;;;;;;5.33;3.43;;;;;;;;;;5041734;28;21022;-73
2023/07/23 06:03:13;;;;;;;7.47;3.03;;;;;;;;;;5042994;28;20626;-72
2023/07/23 06:05:41;;;;;;;10.37;2.87;;;;;;;;;;5042878;28;20979;-73
2023/07/23 06:08:10;;;;;;;3.23;2.60;;;;;;;;;;5046887;28;20612;-73
2023/07/23 06:10:38;;;;;;;3.50;3.20;;;;;;;;;;5045239;28;20658;-73
2023/07/23 06:13:06;;;;;;;5.80;2.53;;;;;;;;;;5046842;28;20684;-73
2023/07/23 06:15:36;;;;;;;7.33;3.50;;;;;;;;;;5048461;28;20723;-72
2023/07/23 06:18:04;;;;;;;2.93;2.60;;;;;;;;;;5057071;28;20718;-73
2023/07/23 06:20:32;;;;;;;3.23;3.03;;;;;;;;;;5055910;28;20651;-74
2023/07/23 06:23:01;;;;;;;2.60;2.40;;;;;;;;;;5057185;28;20653;-73
2023/07/23 06:25:30;;;;;;;2.93;2.73;;;;;;;;;;5055989;28;20627;-73
2023/07/23 06:27:58;;;;;;;3.63;2.73;;;;;;;;;;5054346;28;20597;-75
2023/07/23 06:30:27;;;;;;;3.77;3.47;;;;;;;;;;5053351;28;21029;-73
2023/07/23 06:32:56;;;;;;;2.73;2.53;;;;;;;;;;5055097;28;21020;-73
2023/07/23 06:35:24;;;;;;;4.23;2.70;;;;;;;;;;5054132;28;20680;-72
2023/07/23 06:37:53;;;;;;;5.37;3.30;;;;;;;;;;5053844;28;20633;-74
2023/07/23 06:40:21;;;;;;;3.10;2.90;;;;;;;;;;5057790;28;20614;-74
2023/07/23 06:42:49;;;;;;;3.20;3.00;;;;;;;;;;5054052;28;20977;-75
2023/07/23 06:45:17;;;;;;;4.90;2.70;;;;;;;;;;5042995;28;20615;-74
2023/07/23 06:47:45;;;;;;;2.80;2.50;;;;;;;;;;5047076;28;20631;-75
2023/07/23 06:50:17;;;;;;;2.77;2.67;;;;;;;;;;5034168;28;20614;-71
2023/07/23 06:52:46;;;;;;;3.10;2.80;;;;;;;;;;5034823;28;20701;-74
2023/07/23 06:55:14;;;;;;;3.20;3.00;;;;;;;;;;5035714;28;20620;-71
2023/07/23 06:57:42;;;;;;;2.90;2.70;;;;;;;;;;5034432;28;20611;-73
2023/07/23 07:00:12;;;;;;;3.07;2.40;;;;;;;;;;5044559;28;20623;-73
2023/07/23 07:02:40;;;;;;;3.10;2.90;;;;;;;;;;5052357;28;20622;-74
2023/07/23 07:05:08;;;;;;;3.47;2.73;;;;;;;;;;5039781;28;20666;-74
2023/07/23 07:07:38;;;;;;;4.07;2.57;;;;;;;;;;5039401;28;20627;-74
2023/07/23 07:10:07;;;;;;;3.17;2.90;;;;;;;;;;5035810;28;20658;-74
2023/07/23 07:12:35;;;;;;;3.10;2.80;;;;;;;;;;5035357;28;20663;-74
2023/07/23 07:15:04;;;;;;;3.43;2.80;;;;;;;;;;5037669;28;21219;-72
2023/07/23 07:17:33;;;;;;;3.60;3.30;;;;;;;;;;5044085;28;20635;-73
2023/07/23 07:20:01;;;;;;;2.60;2.50;;;;;;;;;;5038612;28;20612;-73
2023/07/23 07:22:29;;;;;;;3.27;2.97;;;;;;;;;;5045416;28;20647;-71
2023/07/23 07:24:59;;;;;;;3.00;2.80;;;;;;;;;;5034059;28;20623;-72
2023/07/23 07:27:27;;;;;;;2.70;2.60;;;;;;;;;;5045543;28;20761;-72
2023/07/23 07:29:55;;;;;;;3.23;3.03;;;;;;;;;;5037322;28;20627;-73
2023/07/23 07:32:23;;;;;;;3.33;3.03;;;;;;;;;;5037820;28;20665;-73
2023/07/23 07:34:52;;;;;;;3.33;2.93;;;;;;;;;;5045551;28;20624;-73
2023/07/23 07:37:20;;;;;;;3.27;3.07;;;;;;;;;;5034902;28;21212;-73
2023/07/23 07:39:48;;;;;;;3.37;3.17;;;;;;;;;;5038884;28;21177;-73
2023/07/23 07:42:18;;;;;;;3.20;3.00;;;;;;;;;;5039303;28;20636;-73
2023/07/23 07:44:46;;;;;;;2.83;2.67;;;;;;;;;;5040526;28;20639;-73
2023/07/23 07:47:15;;;;;;;3.40;3.20;;;;;;;;;;5040851;28;20620;-72
2023/07/23 07:49:43;;;;;;;3.20;3.00;;;;;;;;;;5040947;28;21182;-73
2023/07/23 07:52:12;;;;;;;3.30;2.70;;;;;;;;;;5038124;28;20669;-73
2023/07/23 07:54:40;;;;;;;2.80;2.70;;;;;;;;;;5034925;28;20635;-73
2023/07/23 07:57:09;;;;;;;3.30;2.40;;;;;;;;;;5037381;28;20640;-73
2023/07/23 07:59:39;;;;;;;2.97;2.77;;;;;;;;;;5037677;28;20619;-73
2023/07/23 08:02:08;;;;;;;2.73;2.63;;;;;;;;;;5039176;28;20627;-73
2023/07/23 08:04:36;;;;;;;3.20;3.00;;;;;;;;;;5033419;28;20638;-74
2023/07/23 08:07:05;;;;;;;3.33;3.10;;;;;;;;;;5032655;28;21000;-73
2023/07/23 08:09:34;;;;;;;3.10;2.90;;;;;;;;;;5032602;28;20632;-74
2023/07/23 08:12:03;;;;;;;2.80;2.70;;;;;;;;;;5034516;28;20674;-73
2023/07/23 08:14:32;;;;;;;2.30;2.13;;;;;;;;;;5037390;28;20686;-73
2023/07/23 08:17:02;;;;;;;2.40;2.30;;;;;;;;;;5041637;28;20627;-72
2023/07/23 08:19:30;;;;;;;2.43;2.33;;;;;;;;;;5045490;28;20671;-73
2023/07/23 08:21:58;;;;;;;3.73;2.60;;;;;;;;;;5035019;28;20655;-73
2023/07/23 08:24:27;;;;;;;2.43;2.13;;;;;;;;;;5031478;28;21034;-73
2023/07/23 08:26:56;;;;;;;2.27;2.17;;;;;;;;;;5032137;28;20630;-73
2023/07/23 08:29:26;;;;;;;2.60;2.40;;;;;;;;;;5032464;28;20634;-74
2023/07/23 08:31:55;;;;;;;2.60;2.27;;;;;;;;;;5029656;28;20665;-74
2023/07/23 08:34:26;;;;;;;3.80;2.40;;;;;;;;;;5032206;28;20616;-74
2023/07/23 08:36:54;;;;;;;2.40;2.30;;;;;;;;;;5032153;28;20602;-73
2023/07/23 08:39:23;;;;;;;2.37;2.27;;;;;;;;;;5030962;28;20620;-72
2023/07/23 08:42:02;;;;;;;2.33;2.23;;;;;;;;;;5032170;28;20638;-73
2023/07/23 08:45:04;;;;;;;2.37;2.27;;;;;;;;;;5030624;28;20584;-74
2023/07/23 08:47:35;;;;;;;2.33;2.20;;;;;;;;;;5032044;28;20592;-73
2023/07/23 08:50:05;;;;;;;2.30;2.20;;;;;;;;;;5032549;28;20915;-74
2023/07/23 08:52:34;;;;;;;2.53;2.40;;;;;;;;;;5031111;28;20668;-73
2023/07/23 08:55:03;;;;;;;2.40;2.30;;;;;;;;;;5051594;28;20619;-74
2023/07/23 08:57:32;;;;;;;2.47;2.37;;;;;;;;;;5051631;28;20714;-74
2023/07/23 09:00:00;;;;;;;2.57;2.40;;;;;;;;;;5052355;28;20617;-74
2023/07/23 09:02:28;;;;;;;2.53;2.43;;;;;;;;;;5050545;28;20653;-73
2023/07/23 09:04:57;;;;;;;2.83;2.73;;;;;;;;;;5050699;28;20986;-74
2023/07/23 09:07:27;;;;;;;3.53;2.53;;;;;;;;;;5051683;28;21148;-73
2023/07/23 09:09:55;;;;;;;2.57;2.47;;;;;;;;;;5051345;28;20724;-74
2023/07/23 09:12:24;;;;;;;3.53;3.33;;;;;;;;;;5050635;28;20666;-72
2023/07/23 09:14:52;;;;;;;2.97;2.87;;;;;;;;;;5051867;28;20615;-73
2023/07/23 09:17:21;;;;;;;2.63;2.53;;;;;;;;;;5051709;28;20617;-74
2023/07/23 09:19:49;;;;;;;3.03;2.90;;;;;;;;;;5051783;28;20611;-74
2023/07/23 09:22:18;;;;;;;2.93;2.73;;;;;;;;;;5051137;28;21255;-72
2023/07/23 09:24:48;;;;;;;3.60;3.30;;;;;;;;;;5051298;28;21164;-74
2023/07/23 09:27:18;;;;;;;3.10;2.90;;;;;;;;;;5051436;28;20676;-74
2023/07/23 09:29:47;;;;;;;3.10;3.00;;;;;;;;;;5051395;28;20946;-73
2023/07/23 09:32:25;;;;;;;2.90;2.80;;;;;;;;;;5050707;28;20619;-73
2023/07/23 09:34:53;;;;;;;3.00;2.90;;;;;;;;;;5051719;28;20585;-73
2023/07/23 09:37:22;;;;;;;2.90;2.70;;;;;;;;;;5051088;28;20627;-72
2023/07/23 09:39:56;;;;;;;3.03;2.93;;;;;;;;;;5051493;28;20629;-73
2023/07/23 09:42:24;;;;;;;3.17;2.80;;;;;;;;;;5051322;28;20967;-72
2023/07/23 09:44:53;;;;;;;2.93;2.73;;;;;;;;;;5037679;28;20697;-72
2023/07/23 09:47:25;;;;;;;3.73;3.43;;;;;;;;;;5055500;28;20611;-73
2023/07/23 09:49:54;;;;;;;3.13;2.70;;;;;;;;;;5055192;28;20644;-73
2023/07/23 09:52:24;;;;;;;3.23;3.13;;;;;;;;;;5054904;28;20615;-73
2023/07/23 09:54:54;;;;;;;2.90;2.80;;;;;;;;;;5055217;28;21161;-73
2023/07/23 09:57:23;;;;;;;3.20;3.00;;;;;;;;;;5054571;28;21022;-73
2023/07/23 09:59:52;;;;;;;3.50;3.20;;;;;;;;;;5055260;28;20615;-73
2023/07/23 10:02:23;;;;;;;3.00;2.90;;;;;;;;;;5053621;28;20627;-73
2023/07/23 10:04:51;;;;;;;4.30;3.73;;;;;;;;;;5054032;28;20587;-73
2023/07/23 10:07:19;;;;;;;3.20;3.00;;;;;;;;;;5054325;28;20966;-72
2023/07/23 10:09:48;;;;;;;3.00;2.80;;;;;;;;;;5054918;28;21267;-73
2023/07/23 10:12:17;;;;;;;2.80;2.70;;;;;;;;;;5053891;28;20688;-72
2023/07/23 10:14:46;;;;;;;3.50;3.30;;;;;;;;;;5054700;28;21231;-72
2023/07/23 10:17:14;;;;;;;3.03;2.93;;;;;;;;;;5054006;28;21180;-72
2023/07/23 10:19:42;;;;;;;3.40;3.20;;;;;;;;;;5054996;28;20980;-73
2023/07/23 10:22:10;;;;;;;7.37;3.70;;;;;;;;;;5054217;28;20704;-73
2023/07/23 10:24:39;;;;;;;3.50;3.20;;;;;;;;;;5054396;28;20969;-73
2023/07/23 10:27:11;;;;;;;3.60;3.30;;;;;;;;;;5053736;28;20648;-73
2023/07/23 10:29:41;;;;;;;3.40;3.30;;;;;;;;;;5054628;28;20583;-73
2023/07/23 10:32:26;;;;;;;3.40;3.30;;;;;;;;;;5054239;28;20603;-73
2023/07/23 10:34:55;;;;;;;3.77;3.50;;;;;;;;;;5054068;28;20646;-73
2023/07/23 10:37:23;;;;;;;3.90;3.80;;;;;;;;;;5054241;28;20623;-73
2023/07/23 10:39:51;;;;;;;4.10;3.80;;;;;;;;;;5054347;28;20619;-73
2023/07/23 10:42:41;;;;;;;4.00;3.70;;;;;;;;;;5054359;28;20594;-73
2023/07/23 10:45:24;;;;;;;4.60;4.40;;;;;;;;;;5049594;28;20630;-73
2023/07/23 10:47:53;;;;;;;4.00;3.60;;;;;;;;;;5053990;28;20593;-73
2023/07/23 10:50:23;;;;;;;3.73;3.50;;;;;;;;;;5053586;28;20622;-73
2023/07/23 10:52:51;;;;;;;4.20;4.00;;;;;;;;;;5053807;28;20957;-72
2023/07/23 10:55:46;;;;;;;4.00;3.80;;;;;;;;;;5045148;28;20633;-73
2023/07/23 10:58:15;;;;;;;4.20;3.80;;;;;;;;;;5037476;28;20642;-74
2023/07/23 11:00:46;;;;;;;4.40;4.03;;;;;;;;;;5033629;28;20620;-72
2023/07/23 11:03:16;;;;;;;4.00;3.80;;;;;;;;;;5032809;28;20583;-72
2023/07/23 11:05:44;;;;;;;4.73;4.33;;;;;;;;;;5031013;28;20615;-72
2023/07/23 11:08:13;;;;;;;4.57;4.20;;;;;;;;;;5034283;28;20615;-73
2023/07/23 11:10:55;;;;;;;3.70;3.50;;;;;;;;;;5032970;28;20648;-73
2023/07/23 11:13:24;;;;;;;4.70;3.90;;;;;;;;;;5050110;28;20651;-71
2023/07/23 11:15:54;;;;;;;3.90;3.70;;;;;;;;;;5033826;28;20608;-73
2023/07/23 11:18:22;;;;;;;4.10;3.90;;;;;;;;;;5033670;28;20622;-73
2023/07/23 11:20:51;;;;;;;3.80;3.60;;;;;;;;;;5032876;28;20712;-73
2023/07/23 11:23:22;;;;;;;4.23;4.03;;;;;;;;;;5033342;28;20993;-71
2023/07/23 11:25:51;;;;;;;5.10;4.80;;;;;;;;;;5033133;28;20586;-72
2023/07/23 11:28:20;;;;;;;4.03;3.83;;;;;;;;;;5032660;28;21170;-73
2023/07/23 11:30:49;;;;;;;4.27;4.07;;;;;;;;;;5031884;28;20612;-74
2023/07/23 11:33:21;;;;;;;4.10;3.90;;;;;;;;;;5032949;28;20612;-73
2023/07/23 11:35:50;;;;;;;4.23;3.93;;;;;;;;;;5033295;28;20946;-74
2023/07/23 11:38:18;;;;;;;4.30;4.10;;;;;;;;;;5032929;28;20975;-73
2023/07/23 11:40:52;;;;;;;3.90;3.70;;;;;;;;;;5033123;28;21043;-71
2023/07/23 11:43:20;;;;;;;4.40;4.10;;;;;;;;;;5032730;28;20662;-74
2023/07/23 11:45:50;;;;;;;4.60;3.77;;;;;;;;;;5032910;28;20620;-74
2023/07/23 11:48:20;;;;;;;4.77;4.00;;;;;;;;;;5032403;28;20615;-74
2023/07/23 11:50:48;;;;;;;4.23;4.00;;;;;;;;;;5032642;28;20619;-74
2023/07/23 11:53:31;;;;;;;4.73;4.13;;;;;;;;;;5032679;28;20964;-74
2023/07/23 11:56:04;;;;;;;4.47;4.20;;;;;;;;;;5033000;28;20584;-74
2023/07/23 11:58:33;;;;;;;4.33;4.13;;;;;;;;;;5032905;28;20852;-74
2023/07/23 12:01:01;;;;;;;4.20;4.10;;;;;;;;;;5031906;28;20622;-74
2023/07/23 12:03:33;;;;;;;4.87;4.33;;;;;;;;;;5031058;28;21186;-74
2023/07/23 12:06:01;;;;;;;4.23;3.93;;;;;;;;;;5032510;28;20588;-74
2023/07/23 12:08:30;;;;;;;4.37;4.17;;;;;;;;;;5070787;28;20618;-74
2023/07/23 12:10:58;;;;;;;3.90;3.80;;;;;;;;;;5061742;28;20664;-73
2023/07/23 12:13:26;;;;;;;4.67;4.47;;;;;;;;;;5052003;28;20980;-73
2023/07/23 12:15:57;;;;;;;5.40;3.67;;;;;;;;;;5041834;28;21159;-74
2023/07/23 12:18:28;;;;;;;3.93;3.73;;;;;;;;;;5031963;28;20645;-74
2023/07/23 12:21:01;;;;;;;3.90;3.80;;;;;;;;;;5031906;28;20643;-74
2023/07/23 12:23:29;;;;;;;4.37;4.07;;;;;;;;;;5030988;28;20590;-73
2023/07/23 12:25:57;;;;;;;4.30;4.10;;;;;;;;;;5031845;28;20612;-73
2023/07/23 12:28:27;;;;;;;3.97;3.87;;;;;;;;;;5031927;28;20624;-74
2023/07/23 12:30:56;;;;;;;3.90;3.70;;;;;;;;;;5031589;28;20625;-74
2023/07/23 12:33:24;;;;;;;4.27;4.07;;;;;;;;;;5029112;28;20640;-74
2023/07/23 12:35:52;;;;;;;4.27;4.07;;;;;;;;;;5044943;28;20667;-73
2023/07/23 12:38:22;;;;;;;4.00;3.80;;;;;;;;;;5035324;28;20642;-73
2023/07/23 12:40:50;;;;;;;4.50;4.30;;;;;;;;;;5042991;28;20632;-74
2023/07/23 12:43:18;;;;;;;4.27;4.13;;;;;;;;;;5035736;28;20648;-74
2023/07/23 12:45:47;;;;;;;4.30;4.10;;;;;;;;;;5039479;28;20965;-73
2023/07/23 12:48:15;;;;;;;4.90;4.60;;;;;;;;;;5036170;28;20668;-73
2023/07/23 12:50:43;;;;;;;4.57;4.17;;;;;;;;;;5033835;28;20640;-72
2023/07/23 12:53:11;;;;;;;8.20;4.00;;;;;;;;;;5049018;28;20713;-74
2023/07/23 12:55:41;;;;;;;3.80;3.70;;;;;;;;;;5044182;28;20664;-74
2023/07/23 12:58:09;;;;;;;4.00;3.80;;;;;;;;;;5044502;28;20632;-74
2023/07/23 13:00:37;;;;;;;4.23;3.93;;;;;;;;;;5042837;28;21017;-73
2023/07/23 13:03:05;;;;;;;4.57;4.10;;;;;;;;;;5041774;28;20990;-74
2023/07/23 13:05:34;;;;;;;4.40;4.20;;;;;;;;;;5045073;28;20627;-73
2023/07/23 13:08:02;;;;;;;4.20;4.10;;;;;;;;;;5039889;28;20616;-74
2023/07/23 13:10:30;;;;;;;4.50;3.93;;;;;;;;;;5050811;28;20673;-74
2023/07/23 13:13:00;;;;;;;5.93;4.40;;;;;;;;;;5049805;28;20635;-73
2023/07/23 13:15:28;;;;;;;4.20;4.10;;;;;;;;;;5046830;28;20648;-71
2023/07/23 13:17:57;;;;;;;4.63;4.27;;;;;;;;;;5046989;28;21249;-73
2023/07/23 13:20:25;;;;;;;4.90;4.60;;;;;;;;;;5046528;28;20664;-74
2023/07/23 13:22:53;;;;;;;4.50;4.30;;;;;;;;;;5048850;28;20623;-71
2023/07/23 13:25:21;;;;;;;4.40;4.10;;;;;;;;;;5048698;28;20619;-74
2023/07/23 13:27:50;;;;;;;4.10;3.90;;;;;;;;;;5045918;28;20632;-74
2023/07/23 13:30:19;;;;;;;4.30;4.00;;;;;;;;;;5031944;28;20632;-73
2023/07/23 13:32:47;;;;;;;6.53;4.40;;;;;;;;;;5034507;28;20635;-72
2023/07/23 13:35:15;;;;;;;4.40;4.20;;;;;;;;;;5035956;28;20667;-72
2023/07/23 13:37:44;;;;;;;4.80;4.33;;;;;;;;;;5038361;28;20623;-71
2023/07/23 13:40:12;;;;;;;4.70;4.40;;;;;;;;;;5041080;28;20989;-73
2023/07/23 13:42:40;;;;;;;4.37;4.17;;;;;;;;;;5033629;28;20630;-72
2023/07/23 13:45:09;;;;;;;4.37;4.10;;;;;;;;;;5036506;28;20979;-72
2023/07/23 13:47:39;;;;;;;4.67;4.37;;;;;;;;;;5037765;28;20992;-73
2023/07/23 13:50:07;;;;;;;4.10;3.87;;;;;;;;;;5040924;28;20650;-73
2023/07/23 13:52:35;;;;;;;5.83;4.60;;;;;;;;;;5034883;28;20621;-73
2023/07/23 13:55:04;;;;;;;4.50;4.20;;;;;;;;;;5040097;28;20668;-70
2023/07/23 13:57:32;;;;;;;4.90;4.60;;;;;;;;;;5040113;28;20615;-72
2023/07/23 14:00:03;;;;;;;4.80;4.50;;;;;;;;;;5056170;28;20718;-71
2023/07/23 14:02:42;;;;;;;5.10;4.53;;;;;;;;;;5056664;28;21145;-72
2023/07/23 14:05:11;;;;;;;4.40;4.23;;;;;;;;;;5031332;28;20599;-72
2023/07/23 14:07:39;;;;;;;4.90;4.60;;;;;;;;;;5040493;28;20627;-70
2023/07/23 14:10:08;;;;;;;5.63;5.33;;;;;;;;;;5040501;28;20802;-71
2023/07/23 14:12:36;;;;;;;4.90;4.60;;;;;;;;;;5036842;28;20990;-73
2023/07/23 14:15:05;;;;;;;4.90;4.60;;;;;;;;;;5042740;28;20668;-72
2023/07/23 14:17:34;;;;;;;5.17;4.57;;;;;;;;;;5022968;28;20632;-71
2023/07/23 14:20:04;;;;;;;5.30;4.97;;;;;;;;;;5038738;28;20631;-71
2023/07/23 14:22:32;;;;;;;5.27;4.87;;;;;;;;;;5007622;28;20608;-71
2023/07/23 14:25:00;;;;;;;5.07;4.47;;;;;;;;;;5030579;28;21123;-71
2023/07/23 14:27:29;;;;;;;4.60;4.40;;;;;;;;;;5030338;28;20624;-73
2023/07/23 14:30:16;;;;;;;4.67;4.33;;;;;;;;;;5033744;28;21157;-71
2023/07/23 14:32:44;;;;;;;4.60;4.30;;;;;;;;;;5036712;28;20619;-73
2023/07/23 14:35:14;;;;;;;4.40;4.20;;;;;;;;;;5034668;28;20658;-74
2023/07/23 14:37:42;;;;;;;4.67;4.43;;;;;;;;;;5034350;28;20620;-73
2023/07/23 14:40:11;;;;;;;4.23;4.03;;;;;;;;;;5040155;28;20728;-74
2023/07/23 14:42:39;;;;;;;4.50;4.30;;;;;;;;;;5016605;28;20624;-72
2023/07/23 14:45:08;;;;;;;4.50;4.20;;;;;;;;;;5046306;28;20648;-74
2023/07/23 14:47:36;;;;;;;4.80;4.60;;;;;;;;;;5034417;28;20623;-73
2023/07/23 14:50:05;;;;;;;4.50;4.30;;;;;;;;;;5017570;28;21150;-72
2023/07/23 14:52:34;;;;;;;4.40;4.10;;;;;;;;;;5038529;28;20619;-75
2023/07/23 14:55:02;;;;;;;4.87;4.47;;;;;;;;;;5031698;28;20674;-75